sensor_id;sensor_type;location;lat;lon;timestamp;temperature;humidity
19567;DHT22;9930;49.240;8.548;2023-04-01T00:01:04;13.60;72.40
19567;DHT22;9930;49.240;8.548;2023-04-01T00:03:34;13.60;72.30
19567;DHT22;9930;49.240;8.548;2023-04-01T00:06:02;13.60;72.30
19567;DHT22;9930;49.240;8.548;2023-04-01T00:08:29;13.50;72.20
19567;DHT22;9930;49.240;8.548;2023-04-01T00:10:59;13.50;72.10
19567;DHT22;9930;49.240;8.548;2023-04-01T00:13:26;13.50;72.20
19567;DHT22;9930;49.240;8.548;2023-04-01T00:15:59;13.50;72.20
19567;DHT22;9930;49.240;8.548;2023-04-01T00:18:31;13.50;72.30
19567;DHT22;9930;49.240;8.548;2023-04-01T00:21:05;13.40;72.20
19567;DHT22;9930;49.240;8.548;2023-04-01T00:23:33;13.40;72.30
19567;DHT22;9930;49.240;8.548;2023-04-01T00:26:01;13.40;72.40
19567;DHT22;9930;49.240;8.548;2023-04-01T00:28:31;13.40;72.50
19567;DHT22;9930;49.240;8.548;2023-04-01T00:31:03;13.40;72.50
19567;DHT22;9930;49.240;8.548;2023-04-01T00:33:32;13.30;72.50
19567;DHT22;9930;49.240;8.548;2023-04-01T00:38:38;13.30;72.70
19567;DHT22;9930;49.240;8.548;2023-04-01T00:41:07;13.30;72.70
19567;DHT22;9930;49.240;8.548;2023-04-01T00:43:34;13.30;72.70
19567;DHT22;9930;49.240;8.548;2023-04-01T00:46:02;13.30;72.70
19567;DHT22;9930;49.240;8.548;2023-04-01T00:48:35;13.40;72.80
19567;DHT22;9930;49.240;8.548;2023-04-01T00:51:11;13.40;72.80
19567;DHT22;9930;49.240;8.548;2023-04-01T00:53:47;13.40;72.80
19567;DHT22;9930;49.240;8.548;2023-04-01T00:56:32;13.40;72.80
19567;DHT22;9930;49.240;8.548;2023-04-01T00:59:04;13.40;72.80
19567;DHT22;9930;49.240;8.548;2023-04-01T01:01:34;13.40;72.80
19567;DHT22;9930;49.240;8.548;2023-04-01T01:04:02;13.40;72.80
19567;DHT22;9930;49.240;8.548;2023-04-01T01:11:50;13.40;72.80
19567;DHT22;9930;49.240;8.548;2023-04-01T01:14:54;13.40;72.80
19567;DHT22;9930;49.240;8.548;2023-04-01T01:26:35;13.30;72.70
19567;DHT22;9930;49.240;8.548;2023-04-01T01:35:35;13.20;72.60
19567;DHT22;9930;49.240;8.548;2023-04-01T01:38:14;13.20;72.70
19567;DHT22;9930;49.240;8.548;2023-04-01T01:40:46;13.20;72.70
19567;DHT22;9930;49.240;8.548;2023-04-01T01:43:22;13.20;72.80
19567;DHT22;9930;49.240;8.548;2023-04-01T01:45:59;13.30;72.90
19567;DHT22;9930;49.240;8.548;2023-04-01T01:48:31;13.30;72.90
19567;DHT22;9930;49.240;8.548;2023-04-01T01:50:59;13.30;72.80
19567;DHT22;9930;49.240;8.548;2023-04-01T01:53:28;13.30;72.70
19567;DHT22;9930;49.240;8.548;2023-04-01T01:55:54;13.30;72.70
19567;DHT22;9930;49.240;8.548;2023-04-01T01:58:28;13.30;72.70
19567;DHT22;9930;49.240;8.548;2023-04-01T02:01:03;13.30;72.50
19567;DHT22;9930;49.240;8.548;2023-04-01T02:03:34;13.30;72.50
19567;DHT22;9930;49.240;8.548;2023-04-01T02:06:04;13.40;72.50
19567;DHT22;9930;49.240;8.548;2023-04-01T02:09:16;13.40;72.40
19567;DHT22;9930;49.240;8.548;2023-04-01T02:11:40;13.40;72.30
19567;DHT22;9930;49.240;8.548;2023-04-01T02:16:51;13.40;72.20
19567;DHT22;9930;49.240;8.548;2023-04-01T02:19:22;13.40;72.20
19567;DHT22;9930;49.240;8.548;2023-04-01T02:21:57;13.40;72.10
19567;DHT22;9930;49.240;8.548;2023-04-01T02:24:28;13.40;72.10
19567;DHT22;9930;49.240;8.548;2023-04-01T02:26:57;13.40;72.00
19567;DHT22;9930;49.240;8.548;2023-04-01T02:29:28;13.40;72.00
19567;DHT22;9930;49.240;8.548;2023-04-01T02:31:55;13.50;71.90
19567;DHT22;9930;49.240;8.548;2023-04-01T02:34:29;13.50;72.00
19567;DHT22;9930;49.240;8.548;2023-04-01T02:36:56;13.50;72.00
19567;DHT22;9930;49.240;8.548;2023-04-01T02:39:26;13.50;72.00
19567;DHT22;9930;49.240;8.548;2023-04-01T02:41:52;13.50;72.00
19567;DHT22;9930;49.240;8.548;2023-04-01T02:44:18;13.50;72.00
19567;DHT22;9930;49.240;8.548;2023-04-01T02:46:44;13.50;72.10
19567;DHT22;9930;49.240;8.548;2023-04-01T02:49:11;13.60;72.10
19567;DHT22;9930;49.240;8.548;2023-04-01T02:51:37;13.50;72.00
19567;DHT22;9930;49.240;8.548;2023-04-01T02:54:03;13.60;72.20
19567;DHT22;9930;49.240;8.548;2023-04-01T02:56:33;13.50;72.10
19567;DHT22;9930;49.240;8.548;2023-04-01T02:59:04;13.50;72.10
19567;DHT22;9930;49.240;8.548;2023-04-01T03:01:32;13.50;72.20
19567;DHT22;9930;49.240;8.548;2023-04-01T03:04:01;13.50;72.10
19567;DHT22;9930;49.240;8.548;2023-04-01T03:06:27;13.50;72.00
19567;DHT22;9930;49.240;8.548;2023-04-01T03:08:57;13.50;72.00
19567;DHT22;9930;49.240;8.548;2023-04-01T03:11:24;13.50;72.10
19567;DHT22;9930;49.240;8.548;2023-04-01T03:13:54;13.50;72.10
19567;DHT22;9930;49.240;8.548;2023-04-01T03:16:20;13.50;72.10
19567;DHT22;9930;49.240;8.548;2023-04-01T03:18:48;13.50;72.00
19567;DHT22;9930;49.240;8.548;2023-04-01T03:21:21;13.50;71.90
19567;DHT22;9930;49.240;8.548;2023-04-01T03:23:50;13.40;71.90
19567;DHT22;9930;49.240;8.548;2023-04-01T03:26:16;13.40;71.90
19567;DHT22;9930;49.240;8.548;2023-04-01T03:28:45;13.40;71.90
19567;DHT22;9930;49.240;8.548;2023-04-01T03:31:13;13.40;71.90
19567;DHT22;9930;49.240;8.548;2023-04-01T03:33:39;13.40;71.90
19567;DHT22;9930;49.240;8.548;2023-04-01T03:36:05;13.40;71.90
19567;DHT22;9930;49.240;8.548;2023-04-01T03:38:34;13.40;72.00
19567;DHT22;9930;49.240;8.548;2023-04-01T03:41:03;13.30;71.90
19567;DHT22;9930;49.240;8.548;2023-04-01T03:43:29;13.30;71.90
19567;DHT22;9930;49.240;8.548;2023-04-01T03:45:55;13.30;71.90
19567;DHT22;9930;49.240;8.548;2023-04-01T03:48:23;13.30;72.00
19567;DHT22;9930;49.240;8.548;2023-04-01T03:50:53;13.30;72.00
19567;DHT22;9930;49.240;8.548;2023-04-01T03:53:22;13.20;72.00
19567;DHT22;9930;49.240;8.548;2023-04-01T03:55:48;13.20;72.10
19567;DHT22;9930;49.240;8.548;2023-04-01T03:58:16;13.20;72.10
19567;DHT22;9930;49.240;8.548;2023-04-01T04:00:43;13.20;72.20
19567;DHT22;9930;49.240;8.548;2023-04-01T04:03:13;13.20;72.20
19567;DHT22;9930;49.240;8.548;2023-04-01T04:05:48;13.10;72.30
19567;DHT22;9930;49.240;8.548;2023-04-01T04:08:15;13.10;72.40
19567;DHT22;9930;49.240;8.548;2023-04-01T04:10:44;13.10;72.30
19567;DHT22;9930;49.240;8.548;2023-04-01T04:13:13;13.00;72.30
19567;DHT22;9930;49.240;8.548;2023-04-01T04:15:41;13.00;72.50
19567;DHT22;9930;49.240;8.548;2023-04-01T04:18:09;13.00;72.50
19567;DHT22;9930;49.240;8.548;2023-04-01T04:20:44;12.90;72.60
19567;DHT22;9930;49.240;8.548;2023-04-01T04:23:12;12.90;72.80
19567;DHT22;9930;49.240;8.548;2023-04-01T04:25:40;12.80;72.80
19567;DHT22;9930;49.240;8.548;2023-04-01T04:28:05;12.80;73.00
19567;DHT22;9930;49.240;8.548;2023-04-01T04:30:36;12.80;73.20
19567;DHT22;9930;49.240;8.548;2023-04-01T04:33:02;12.70;73.40
19567;DHT22;9930;49.240;8.548;2023-04-01T04:35:31;12.70;73.30
19567;DHT22;9930;49.240;8.548;2023-04-01T04:38:00;12.70;73.40
19567;DHT22;9930;49.240;8.548;2023-04-01T04:40:35;12.80;73.70
19567;DHT22;9930;49.240;8.548;2023-04-01T04:43:05;12.70;73.70
19567;DHT22;9930;49.240;8.548;2023-04-01T04:45:31;12.70;73.70
19567;DHT22;9930;49.240;8.548;2023-04-01T04:50:47;12.70;73.90
19567;DHT22;9930;49.240;8.548;2023-04-01T04:53:15;12.70;73.70
19567;DHT22;9930;49.240;8.548;2023-04-01T04:55:48;12.70;73.70
19567;DHT22;9930;49.240;8.548;2023-04-01T04:58:17;12.70;73.90
19567;DHT22;9930;49.240;8.548;2023-04-01T05:00:43;12.70;74.00
19567;DHT22;9930;49.240;8.548;2023-04-01T05:03:10;12.70;73.80
19567;DHT22;9930;49.240;8.548;2023-04-01T05:05:39;12.80;73.80
19567;DHT22;9930;49.240;8.548;2023-04-01T05:08:05;12.80;73.90
19567;DHT22;9930;49.240;8.548;2023-04-01T05:10:31;12.80;73.80
19567;DHT22;9930;49.240;8.548;2023-04-01T05:12:58;12.80;73.80
19567;DHT22;9930;49.240;8.548;2023-04-01T05:15:24;12.90;73.80
19567;DHT22;9930;49.240;8.548;2023-04-01T05:17:50;12.90;73.80
19567;DHT22;9930;49.240;8.548;2023-04-01T05:20:16;12.90;73.70
19567;DHT22;9930;49.240;8.548;2023-04-01T05:22:42;13.00;73.70
19567;DHT22;9930;49.240;8.548;2023-04-01T05:25:08;13.00;73.70
19567;DHT22;9930;49.240;8.548;2023-04-01T05:27:35;13.00;73.60
19567;DHT22;9930;49.240;8.548;2023-04-01T05:30:04;13.10;73.60
19567;DHT22;9930;49.240;8.548;2023-04-01T05:32:34;13.00;73.50
19567;DHT22;9930;49.240;8.548;2023-04-01T05:35:02;13.00;73.40
19567;DHT22;9930;49.240;8.548;2023-04-01T05:37:36;13.10;73.50
19567;DHT22;9930;49.240;8.548;2023-04-01T05:40:03;13.10;73.50
19567;DHT22;9930;49.240;8.548;2023-04-01T05:42:32;13.10;73.30
19567;DHT22;9930;49.240;8.548;2023-04-01T05:45:00;13.10;74.00
19567;DHT22;9930;49.240;8.548;2023-04-01T05:47:29;13.10;73.20
19567;DHT22;9930;49.240;8.548;2023-04-01T05:49:55;13.10;73.20
19567;DHT22;9930;49.240;8.548;2023-04-01T05:52:24;13.20;73.30
19567;DHT22;9930;49.240;8.548;2023-04-01T05:54:52;13.20;73.20
19567;DHT22;9930;49.240;8.548;2023-04-01T05:57:20;13.20;73.20
19567;DHT22;9930;49.240;8.548;2023-04-01T05:59:47;13.20;73.20
19567;DHT22;9930;49.240;8.548;2023-04-01T06:02:17;13.20;73.20
19567;DHT22;9930;49.240;8.548;2023-04-01T06:04:44;13.20;73.20
19567;DHT22;9930;49.240;8.548;2023-04-01T06:07:17;13.20;73.30
19567;DHT22;9930;49.240;8.548;2023-04-01T06:09:46;13.20;73.30
19567;DHT22;9930;49.240;8.548;2023-04-01T06:12:40;13.20;73.30
19567;DHT22;9930;49.240;8.548;2023-04-01T06:15:56;13.20;73.20
19567;DHT22;9930;49.240;8.548;2023-04-01T06:18:48;13.20;73.60
19567;DHT22;9930;49.240;8.548;2023-04-01T06:27:44;13.20;73.40
19567;DHT22;9930;49.240;8.548;2023-04-01T06:33:34;13.20;73.30
19567;DHT22;9930;49.240;8.548;2023-04-01T06:54:07;13.10;74.00
19567;DHT22;9930;49.240;8.548;2023-04-01T06:56:38;13.10;74.00
19567;DHT22;9930;49.240;8.548;2023-04-01T06:59:16;13.10;74.00
19567;DHT22;9930;49.240;8.548;2023-04-01T07:01:49;13.00;74.10
19567;DHT22;9930;49.240;8.548;2023-04-01T07:04:40;13.00;74.90
19567;DHT22;9930;49.240;8.548;2023-04-01T07:10:05;13.00;74.40
19567;DHT22;9930;49.240;8.548;2023-04-01T07:12:43;13.00;74.40
19567;DHT22;9930;49.240;8.548;2023-04-01T07:15:28;13.00;74.50
19567;DHT22;9930;49.240;8.548;2023-04-01T07:18:17;13.00;74.80
19567;DHT22;9930;49.240;8.548;2023-04-01T07:20:48;13.00;74.80
19567;DHT22;9930;49.240;8.548;2023-04-01T07:23:23;13.00;74.90
19567;DHT22;9930;49.240;8.548;2023-04-01T07:25:56;13.00;74.90
19567;DHT22;9930;49.240;8.548;2023-04-01T07:28:30;13.00;74.90
19567;DHT22;9930;49.240;8.548;2023-04-01T07:31:30;13.10;75.00
19567;DHT22;9930;49.240;8.548;2023-04-01T07:34:30;13.10;74.90
19567;DHT22;9930;49.240;8.548;2023-04-01T07:40:31;13.10;75.30
19567;DHT22;9930;49.240;8.548;2023-04-01T07:49:04;13.20;75.60
19567;DHT22;9930;49.240;8.548;2023-04-01T07:57:35;13.30;75.60
19567;DHT22;9930;49.240;8.548;2023-04-01T08:00:24;13.30;75.60
19567;DHT22;9930;49.240;8.548;2023-04-01T08:03:27;13.30;76.00
19567;DHT22;9930;49.240;8.548;2023-04-01T08:11:36;13.50;75.90
19567;DHT22;9930;49.240;8.548;2023-04-01T08:14:30;13.50;76.10
19567;DHT22;9930;49.240;8.548;2023-04-01T08:17:45;13.50;75.80
19567;DHT22;9930;49.240;8.548;2023-04-01T08:20:27;13.50;76.10
19567;DHT22;9930;49.240;8.548;2023-04-01T08:23:00;13.60;76.20
19567;DHT22;9930;49.240;8.548;2023-04-01T08:29:11;13.60;76.40
19567;DHT22;9930;49.240;8.548;2023-04-01T08:31:58;13.70;76.50
19567;DHT22;9930;49.240;8.548;2023-04-01T08:34:40;13.80;76.50
19567;DHT22;9930;49.240;8.548;2023-04-01T08:37:22;13.90;76.40
19567;DHT22;9930;49.240;8.548;2023-04-01T08:49:40;14.10;75.70
19567;DHT22;9930;49.240;8.548;2023-04-01T08:52:36;14.00;75.60
19567;DHT22;9930;49.240;8.548;2023-04-01T08:55:19;14.10;75.50
19567;DHT22;9930;49.240;8.548;2023-04-01T09:00:50;14.10;75.70
19567;DHT22;9930;49.240;8.548;2023-04-01T09:07:08;14.10;75.70
19567;DHT22;9930;49.240;8.548;2023-04-01T09:10:09;14.10;75.60
19567;DHT22;9930;49.240;8.548;2023-04-01T09:12:56;14.20;75.60
19567;DHT22;9930;49.240;8.548;2023-04-01T09:19:09;14.20;75.60
19567;DHT22;9930;49.240;8.548;2023-04-01T09:31:22;14.30;75.70
19567;DHT22;9930;49.240;8.548;2023-04-01T09:37:18;14.40;75.60
19567;DHT22;9930;49.240;8.548;2023-04-01T09:40:37;14.40;75.70
19567;DHT22;9930;49.240;8.548;2023-04-01T09:46:23;14.50;75.10
19567;DHT22;9930;49.240;8.548;2023-04-01T10:01:39;14.60;75.10
19567;DHT22;9930;49.240;8.548;2023-04-01T10:14:29;14.70;75.10
19567;DHT22;9930;49.240;8.548;2023-04-01T10:38:19;14.80;74.60
19567;DHT22;9930;49.240;8.548;2023-04-01T10:55:14;14.80;75.10
19567;DHT22;9930;49.240;8.548;2023-04-01T10:58:00;14.90;75.10
19567;DHT22;9930;49.240;8.548;2023-04-01T11:01:02;14.90;74.90
19567;DHT22;9930;49.240;8.548;2023-04-01T11:18:19;14.90;74.80
19567;DHT22;9930;49.240;8.548;2023-04-01T11:35:29;15.00;75.40
19567;DHT22;9930;49.240;8.548;2023-04-01T11:44:46;15.10;75.50
19567;DHT22;9930;49.240;8.548;2023-04-01T12:08:21;15.20;75.00
19567;DHT22;9930;49.240;8.548;2023-04-01T12:11:16;15.20;75.30
19567;DHT22;9930;49.240;8.548;2023-04-01T12:22:30;15.30;75.10
19567;DHT22;9930;49.240;8.548;2023-04-01T12:30:59;15.50;75.20
19567;DHT22;9930;49.240;8.548;2023-04-01T12:45:32;15.60;74.20
19567;DHT22;9930;49.240;8.548;2023-04-01T13:03:10;15.70;73.90
19567;DHT22;9930;49.240;8.548;2023-04-01T13:15:12;15.80;73.90
19567;DHT22;9930;49.240;8.548;2023-04-01T13:17:57;15.90;73.50
19567;DHT22;9930;49.240;8.548;2023-04-01T13:20:53;15.90;73.50
19567;DHT22;9930;49.240;8.548;2023-04-01T13:38:19;16.10;72.80
19567;DHT22;9930;49.240;8.548;2023-04-01T13:43:28;16.10;72.60
19567;DHT22;9930;49.240;8.548;2023-04-01T13:48:49;16.10;72.10
19567;DHT22;9930;49.240;8.548;2023-04-01T13:58:16;15.90;71.30
19567;DHT22;9930;49.240;8.548;2023-04-01T14:00:59;15.80;71.70
19567;DHT22;9930;49.240;8.548;2023-04-01T14:04:16;15.80;71.90
19567;DHT22;9930;49.240;8.548;2023-04-01T14:12:30;15.70;72.10
19567;DHT22;9930;49.240;8.548;2023-04-01T14:15:31;15.70;72.10
19567;DHT22;9930;49.240;8.548;2023-04-01T14:18:30;15.70;72.30
19567;DHT22;9930;49.240;8.548;2023-04-01T14:41:31;15.70;71.70
19567;DHT22;9930;49.240;8.548;2023-04-01T14:47:55;15.70;71.60
19567;DHT22;9930;49.240;8.548;2023-04-01T14:50:27;15.70;71.80
19567;DHT22;9930;49.240;8.548;2023-04-01T14:55:53;15.60;71.60
19567;DHT22;9930;49.240;8.548;2023-04-01T14:58:22;15.60;71.80
19567;DHT22;9930;49.240;8.548;2023-04-01T15:01:00;15.60;71.80
19567;DHT22;9930;49.240;8.548;2023-04-01T15:14:23;15.40;72.30
19567;DHT22;9930;49.240;8.548;2023-04-01T15:23:38;15.40;72.60
19567;DHT22;9930;49.240;8.548;2023-04-01T15:32:38;15.40;72.90
19567;DHT22;9930;49.240;8.548;2023-04-01T15:43:58;15.40;72.70
19567;DHT22;9930;49.240;8.548;2023-04-01T15:47:00;15.30;72.70
19567;DHT22;9930;49.240;8.548;2023-04-01T15:49:34;15.40;72.90
19567;DHT22;9930;49.240;8.548;2023-04-01T16:06:41;15.30;72.80
19567;DHT22;9930;49.240;8.548;2023-04-01T16:09:27;15.20;72.90
19567;DHT22;9930;49.240;8.548;2023-04-01T16:20:57;15.20;73.10
19567;DHT22;9930;49.240;8.548;2023-04-01T16:23:40;15.10;73.10
19567;DHT22;9930;49.240;8.548;2023-04-01T16:38:16;15.00;73.70
19567;DHT22;9930;49.240;8.548;2023-04-01T16:44:18;15.00;73.50
19567;DHT22;9930;49.240;8.548;2023-04-01T16:46:52;15.00;73.50
19567;DHT22;9930;49.240;8.548;2023-04-01T16:49:53;15.00;73.50
19567;DHT22;9930;49.240;8.548;2023-04-01T16:52:48;14.90;74.20
19567;DHT22;9930;49.240;8.548;2023-04-01T16:55:19;14.90;73.30
19567;DHT22;9930;49.240;8.548;2023-04-01T16:57:55;15.00;73.40
19567;DHT22;9930;49.240;8.548;2023-04-01T17:00:41;15.00;73.30
19567;DHT22;9930;49.240;8.548;2023-04-01T17:03:26;15.00;73.00
19567;DHT22;9930;49.240;8.548;2023-04-01T17:08:30;14.90;72.70
19567;DHT22;9930;49.240;8.548;2023-04-01T17:11:09;14.90;72.50
19567;DHT22;9930;49.240;8.548;2023-04-01T17:13:57;14.90;72.50
19567;DHT22;9930;49.240;8.548;2023-04-01T17:17:14;14.90;72.50
19567;DHT22;9930;49.240;8.548;2023-04-01T17:31:43;14.80;72.10
19567;DHT22;9930;49.240;8.548;2023-04-01T17:52:25;14.60;72.10
19567;DHT22;9930;49.240;8.548;2023-04-01T17:57:58;14.60;72.00
19567;DHT22;9930;49.240;8.548;2023-04-01T18:31:32;14.30;71.70
19567;DHT22;9930;49.240;8.548;2023-04-01T18:34:06;14.30;71.90
19567;DHT22;9930;49.240;8.548;2023-04-01T18:37:00;14.30;71.80
19567;DHT22;9930;49.240;8.548;2023-04-01T18:40:01;14.30;71.70
19567;DHT22;9930;49.240;8.548;2023-04-01T18:45:23;14.20;71.60
19567;DHT22;9930;49.240;8.548;2023-04-01T18:50:51;14.20;71.40
19567;DHT22;9930;49.240;8.548;2023-04-01T18:53:28;14.20;71.60
19567;DHT22;9930;49.240;8.548;2023-04-01T18:56:24;14.20;71.60
19567;DHT22;9930;49.240;8.548;2023-04-01T18:59:08;14.20;71.50
19567;DHT22;9930;49.240;8.548;2023-04-01T19:08:30;14.10;71.40
19567;DHT22;9930;49.240;8.548;2023-04-01T19:14:13;14.10;71.50
19567;DHT22;9930;49.240;8.548;2023-04-01T19:17:07;14.10;71.40
19567;DHT22;9930;49.240;8.548;2023-04-01T19:22:40;14.10;71.50
19567;DHT22;9930;49.240;8.548;2023-04-01T19:25:38;14.10;71.60
19567;DHT22;9930;49.240;8.548;2023-04-01T19:34:42;14.10;71.60
19567;DHT22;9930;49.240;8.548;2023-04-01T19:38:09;14.00;71.50
19567;DHT22;9930;49.240;8.548;2023-04-01T19:49:13;14.10;71.70
19567;DHT22;9930;49.240;8.548;2023-04-01T19:57:25;14.00;71.80
19567;DHT22;9930;49.240;8.548;2023-04-01T20:03:34;14.00;71.80
19567;DHT22;9930;49.240;8.548;2023-04-01T20:21:36;14.00;72.50
19567;DHT22;9930;49.240;8.548;2023-04-01T20:26:43;14.00;72.70
19567;DHT22;9930;49.240;8.548;2023-04-01T20:35:41;13.90;72.90
19567;DHT22;9930;49.240;8.548;2023-04-01T20:38:47;13.90;73.10
19567;DHT22;9930;49.240;8.548;2023-04-01T20:44:20;13.80;73.10
19567;DHT22;9930;49.240;8.548;2023-04-01T20:47:40;13.80;73.10
19567;DHT22;9930;49.240;8.548;2023-04-01T20:50:28;13.80;73.40
19567;DHT22;9930;49.240;8.548;2023-04-01T20:56:06;13.70;73.30
19567;DHT22;9930;49.240;8.548;2023-04-01T21:02:23;13.60;73.50
19567;DHT22;9930;49.240;8.548;2023-04-01T21:13:33;13.60;73.50
19567;DHT22;9930;49.240;8.548;2023-04-01T21:19:27;13.60;73.80
19567;DHT22;9930;49.240;8.548;2023-04-01T21:22:38;13.60;73.70
19567;DHT22;9930;49.240;8.548;2023-04-01T21:25:26;13.60;73.80
19567;DHT22;9930;49.240;8.548;2023-04-01T22:00:37;13.50;73.90
19567;DHT22;9930;49.240;8.548;2023-04-01T22:05:44;13.50;73.90
19567;DHT22;9930;49.240;8.548;2023-04-01T22:08:33;13.50;73.90
19567;DHT22;9930;49.240;8.548;2023-04-01T22:16:57;13.40;74.10
19567;DHT22;9930;49.240;8.548;2023-04-01T22:19:55;13.40;74.30
19567;DHT22;9930;49.240;8.548;2023-04-01T22:22:55;13.40;74.50
19567;DHT22;9930;49.240;8.548;2023-04-01T22:25:51;13.40;74.50
19567;DHT22;9930;49.240;8.548;2023-04-01T22:28:51;13.40;74.60
19567;DHT22;9930;49.240;8.548;2023-04-01T22:31:28;13.40;74.60
19567;DHT22;9930;49.240;8.548;2023-04-01T22:34:13;13.40;74.50
19567;DHT22;9930;49.240;8.548;2023-04-01T22:36:54;13.40;74.40
19567;DHT22;9930;49.240;8.548;2023-04-01T22:39:59;13.40;74.30
19567;DHT22;9930;49.240;8.548;2023-04-01T22:45:26;13.30;74.40
19567;DHT22;9930;49.240;8.548;2023-04-01T22:48:23;13.30;74.50
19567;DHT22;9930;49.240;8.548;2023-04-01T22:51:18;13.30;74.30
19567;DHT22;9930;49.240;8.548;2023-04-01T22:56:51;13.30;74.40
19567;DHT22;9930;49.240;8.548;2023-04-01T22:59:39;13.20;74.40
19567;DHT22;9930;49.240;8.548;2023-04-01T23:02:28;13.30;74.60
19567;DHT22;9930;49.240;8.548;2023-04-01T23:05:00;13.20;74.60
19567;DHT22;9930;49.240;8.548;2023-04-01T23:08:04;13.20;74.50
19567;DHT22;9930;49.240;8.548;2023-04-01T23:10:56;13.20;74.80
19567;DHT22;9930;49.240;8.548;2023-04-01T23:13:34;13.20;74.60
19567;DHT22;9930;49.240;8.548;2023-04-01T23:16:04;13.20;74.50
19567;DHT22;9930;49.240;8.548;2023-04-01T23:18:48;13.20;74.60
19567;DHT22;9930;49.240;8.548;2023-04-01T23:21:35;13.20;74.70
19567;DHT22;9930;49.240;8.548;2023-04-01T23:24:19;13.20;74.70
19567;DHT22;9930;49.240;8.548;2023-04-01T23:27:31;13.20;74.70
19567;DHT22;9930;49.240;8.548;2023-04-01T23:30:03;13.20;74.80
19567;DHT22;9930;49.240;8.548;2023-04-01T23:32:30;13.20;74.60
19567;DHT22;9930;49.240;8.548;2023-04-01T23:34:58;13.20;74.70
19567;DHT22;9930;49.240;8.548;2023-04-01T23:37:26;13.20;74.90
19567;DHT22;9930;49.240;8.548;2023-04-01T23:39:57;13.10;74.80
19567;DHT22;9930;49.240;8.548;2023-04-01T23:42:32;13.20;74.90
19567;DHT22;9930;49.240;8.548;2023-04-01T23:45:05;13.10;74.80
19567;DHT22;9930;49.240;8.548;2023-04-01T23:47:40;13.20;74.90
19567;DHT22;9930;49.240;8.548;2023-04-01T23:50:17;13.20;74.90
19567;DHT22;9930;49.240;8.548;2023-04-01T23:53:00;13.10;75.00
19567;DHT22;9930;49.240;8.548;2023-04-01T23:55:32;13.10;75.10
19567;DHT22;9930;49.240;8.548;2023-04-01T23:58:24;13.10;75.10
